createdAt,value
2023-05-09T00:00:19.783Z,36.74
2023-05-09T00:01:19.914Z,36.74
2023-05-09T00:02:19.875Z,36.73
2023-05-09T00:03:19.877Z,36.72
2023-05-09T00:04:19.919Z,36.71
2023-05-09T00:05:19.865Z,36.77
2023-05-09T00:06:19.980Z,36.73
2023-05-09T00:07:19.983Z,36.71
2023-05-09T00:08:19.987Z,36.72
2023-05-09T00:09:19.979Z,36.69
2023-05-09T00:10:19.974Z,36.68
2023-05-09T00:11:19.996Z,36.68
2023-05-09T00:12:20.001Z,36.67
2023-05-09T00:13:20.086Z,36.64
2023-05-09T00:14:20.017Z,36.68
2023-05-09T00:15:20.019Z,36.67
2023-05-09T00:16:20.113Z,36.68
2023-05-09T00:17:20.203Z,36.63
2023-05-09T00:18:20.084Z,36.62
2023-05-09T00:19:20.092Z,36.65
2023-05-09T00:20:20.085Z,36.66
2023-05-09T00:21:20.118Z,36.66
2023-05-09T00:22:20.090Z,36.65
2023-05-09T00:23:20.175Z,36.62
2023-05-09T00:24:20.169Z,36.64
2023-05-09T00:25:20.163Z,36.65
2023-05-09T00:26:20.185Z,36.63
2023-05-09T00:27:20.182Z,36.61
2023-05-09T00:28:20.174Z,36.64
2023-05-09T00:29:20.225Z,36.65
2023-05-09T00:30:20.334Z,36.59
2023-05-09T00:31:20.456Z,36.63
2023-05-09T00:32:20.460Z,36.60
2023-05-09T00:33:20.509Z,36.59
2023-05-09T00:34:20.416Z,36.64
2023-05-09T00:35:20.409Z,36.65
2023-05-09T00:36:20.557Z,36.60
2023-05-09T00:37:20.462Z,36.58
2023-05-09T00:38:20.471Z,36.63
2023-05-09T00:39:20.490Z,36.64
2023-05-09T00:40:20.463Z,36.61
2023-05-09T00:41:20.457Z,36.59
2023-05-09T00:42:20.491Z,36.59
2023-05-09T00:43:20.479Z,36.60
2023-05-09T00:44:20.470Z,36.60
2023-05-09T00:45:20.492Z,36.56
2023-05-09T00:46:20.503Z,36.59
2023-05-09T00:47:20.557Z,36.55
2023-05-09T00:48:20.551Z,36.51
2023-05-09T00:49:20.616Z,36.57
2023-05-09T00:50:20.519Z,36.54
2023-05-09T00:51:20.520Z,36.57
2023-05-09T00:52:20.520Z,36.57
2023-05-09T00:53:20.530Z,36.56
2023-05-09T00:54:20.497Z,36.51
2023-05-09T00:55:20.513Z,36.52
2023-05-09T00:56:20.530Z,36.58
2023-05-09T00:57:20.520Z,36.53
2023-05-09T00:58:20.596Z,36.52
2023-05-09T00:59:20.702Z,36.53
2023-05-09T01:00:20.794Z,36.53
2023-05-09T01:01:20.928Z,36.59
2023-05-09T01:02:20.901Z,36.53
2023-05-09T01:03:20.957Z,36.53
2023-05-09T01:04:20.884Z,36.54
2023-05-09T01:05:20.941Z,36.54
2023-05-09T01:06:20.895Z,36.53
2023-05-09T01:07:20.936Z,36.56
2023-05-09T01:08:20.976Z,36.51
2023-05-09T01:09:20.976Z,36.54
2023-05-09T01:10:21.050Z,36.51
2023-05-09T01:11:20.988Z,36.53
2023-05-09T01:12:20.970Z,36.51
2023-05-09T01:13:21.104Z,36.49
2023-05-09T01:14:21.149Z,36.52
2023-05-09T01:15:21.239Z,36.51
2023-05-09T01:16:21.396Z,36.53
2023-05-09T01:17:21.436Z,36.54
2023-05-09T01:18:21.435Z,36.50
2023-05-09T01:19:21.434Z,36.52
2023-05-09T01:20:21.441Z,36.49
2023-05-09T01:21:21.527Z,36.49
2023-05-09T01:22:21.446Z,36.53
2023-05-09T01:23:21.525Z,36.52
2023-05-09T01:24:21.515Z,36.53
2023-05-09T01:25:21.513Z,36.52
2023-05-09T01:26:21.532Z,36.50
2023-05-09T01:27:21.520Z,36.48
2023-05-09T01:28:21.525Z,36.47
2023-05-09T01:29:21.579Z,36.48
2023-05-09T01:30:21.685Z,36.49
2023-05-09T01:31:21.829Z,36.52
2023-05-09T01:32:21.772Z,36.49
2023-05-09T01:33:21.754Z,36.46
2023-05-09T01:34:21.773Z,36.50
2023-05-09T01:35:21.758Z,36.50
2023-05-09T01:36:21.815Z,36.49
2023-05-09T01:37:21.930Z,36.49
2023-05-09T01:38:21.961Z,36.46
2023-05-09T01:39:22.042Z,36.53
2023-05-09T01:40:22.056Z,36.52
2023-05-09T01:41:22.061Z,36.56
2023-05-09T01:42:22.036Z,36.52
2023-05-09T01:43:22.066Z,36.51
2023-05-09T01:44:22.056Z,36.49
2023-05-09T01:45:22.137Z,36.54
2023-05-09T01:46:22.277Z,36.55
2023-05-09T01:47:22.335Z,36.53
2023-05-09T01:48:22.341Z,36.52
2023-05-09T01:49:22.338Z,36.52
2023-05-09T01:50:22.388Z,36.54
2023-05-09T01:51:22.352Z,36.54
2023-05-09T01:52:22.356Z,36.53
2023-05-09T01:53:22.509Z,36.53
2023-05-09T01:54:22.437Z,36.53
2023-05-09T01:55:22.432Z,36.53
2023-05-09T01:56:22.440Z,36.52
2023-05-09T01:57:22.455Z,36.54
2023-05-09T01:58:22.478Z,36.55
2023-05-09T01:59:22.554Z,36.56
2023-05-09T02:00:22.644Z,36.56
2023-05-09T02:01:22.794Z,36.57
2023-05-09T02:02:22.882Z,36.56
2023-05-09T02:03:23.070Z,36.58
2023-05-09T02:04:23.044Z,36.51
2023-05-09T02:05:23.128Z,36.53
2023-05-09T02:06:23.137Z,36.56
2023-05-09T02:07:23.144Z,36.58
2023-05-09T02:08:23.149Z,36.56
2023-05-09T02:09:23.228Z,36.54
2023-05-09T02:10:23.153Z,36.52
2023-05-09T02:11:23.235Z,36.56
2023-05-09T02:12:23.332Z,36.54
2023-05-09T02:13:23.448Z,36.57
2023-05-09T02:14:23.541Z,36.58
2023-05-09T02:15:23.616Z,36.57
2023-05-09T02:16:23.735Z,36.53
2023-05-09T02:17:23.786Z,36.59
2023-05-09T02:18:23.725Z,36.53
2023-05-09T02:19:23.728Z,36.53
2023-05-09T02:20:23.761Z,36.57
2023-05-09T02:21:23.771Z,36.56
2023-05-09T02:22:23.787Z,36.58
2023-05-09T02:23:23.782Z,36.60
2023-05-09T02:24:23.794Z,36.58
2023-05-09T02:25:23.808Z,36.53
2023-05-09T02:26:23.805Z,36.55
2023-05-09T02:27:23.894Z,36.55
2023-05-09T02:28:23.997Z,36.56
2023-05-09T02:29:24.090Z,36.57
2023-05-09T02:30:24.123Z,36.58
2023-05-09T02:31:24.174Z,36.59
2023-05-09T02:32:24.122Z,36.56
2023-05-09T02:33:24.157Z,36.50
2023-05-09T02:34:24.115Z,36.53
2023-05-09T02:35:24.229Z,36.57
2023-05-09T02:36:24.354Z,36.57
2023-05-09T02:37:24.423Z,36.58
2023-05-09T02:38:24.492Z,36.57
2023-05-09T02:39:24.504Z,36.55
2023-05-09T02:40:24.520Z,36.58
2023-05-09T02:41:24.615Z,36.58
2023-05-09T02:42:24.574Z,36.55
2023-05-09T02:43:24.565Z,36.56
2023-05-09T02:44:24.573Z,36.58
2023-05-09T02:45:24.596Z,36.55
2023-05-09T02:46:24.664Z,36.58
2023-05-09T02:47:24.604Z,36.56
2023-05-09T02:48:24.633Z,36.56
2023-05-09T02:49:32.014Z,36.58
2023-05-09T02:50:25.599Z,36.57
2023-05-09T02:51:24.604Z,36.58
2023-05-09T02:52:24.589Z,36.60
2023-05-09T02:53:24.588Z,36.59
2023-05-09T02:54:24.571Z,36.58
2023-05-09T02:55:24.603Z,36.59
2023-05-09T02:56:24.578Z,36.61
2023-05-09T02:57:24.635Z,36.57
2023-05-09T02:58:24.560Z,36.58
2023-05-09T02:59:24.558Z,36.56
2023-05-09T03:00:24.553Z,36.58
2023-05-09T03:01:24.560Z,36.57
2023-05-09T03:02:24.584Z,36.56
2023-05-09T03:03:24.652Z,36.57
2023-05-09T03:04:24.511Z,36.60
2023-05-09T03:05:24.507Z,36.60
2023-05-09T03:06:24.512Z,36.56
2023-05-09T03:07:24.500Z,36.56
2023-05-09T03:08:24.504Z,36.62
2023-05-09T03:09:24.606Z,36.60
2023-05-09T03:10:24.706Z,36.55
2023-05-09T03:11:24.697Z,36.61
2023-05-09T03:12:24.727Z,36.61
2023-05-09T03:13:24.904Z,36.57
2023-05-09T03:14:24.740Z,36.63
2023-05-09T03:15:24.740Z,36.57
2023-05-09T03:16:24.907Z,36.59
2023-05-09T03:17:24.900Z,36.64
2023-05-09T03:18:24.889Z,36.65
2023-05-09T03:19:24.899Z,36.63
2023-05-09T03:20:24.922Z,36.63
2023-05-09T03:21:24.936Z,36.62
2023-05-09T03:22:25.021Z,36.61
2023-05-09T03:23:25.025Z,36.62
2023-05-09T03:24:25.021Z,36.63
2023-05-09T03:25:25.044Z,36.66
2023-05-09T03:26:25.057Z,36.67
2023-05-09T03:27:25.091Z,36.60
2023-05-09T03:28:25.207Z,36.59
2023-05-09T03:29:25.227Z,36.61
2023-05-09T03:30:25.150Z,36.61
2023-05-09T03:31:25.185Z,36.62
2023-05-09T03:32:25.195Z,36.62
2023-05-09T03:33:25.194Z,36.62
2023-05-09T03:34:25.216Z,36.64
2023-05-09T03:35:25.228Z,36.64
2023-05-09T03:36:25.238Z,36.62
2023-05-09T03:37:27.047Z,36.64
2023-05-09T03:38:25.259Z,36.63
2023-05-09T03:39:25.267Z,36.66
2023-05-09T03:40:25.283Z,36.69
2023-05-09T03:41:25.296Z,36.68
2023-05-09T03:42:25.289Z,36.67
2023-05-09T03:43:25.308Z,36.62
2023-05-09T03:44:25.329Z,36.63
2023-05-09T03:45:25.416Z,36.64
2023-05-09T03:46:25.450Z,36.64
2023-05-09T03:47:25.446Z,36.65
2023-05-09T03:48:25.479Z,36.62
2023-05-09T03:49:25.469Z,36.65
2023-05-09T03:50:25.481Z,36.64
2023-05-09T03:51:25.500Z,36.62
2023-05-09T03:52:25.533Z,36.62
2023-05-09T03:53:25.540Z,36.63
2023-05-09T03:54:25.547Z,36.61
2023-05-09T03:55:25.567Z,36.64
2023-05-09T03:56:25.569Z,36.62
2023-05-09T03:57:25.658Z,36.62
2023-05-09T03:58:25.675Z,36.63
2023-05-09T03:59:25.689Z,36.63
2023-05-09T04:00:25.713Z,36.65
2023-05-09T04:01:25.829Z,36.64
2023-05-09T04:02:25.827Z,36.63
2023-05-09T04:03:25.815Z,36.60
2023-05-09T04:04:25.793Z,36.64
2023-05-09T04:05:25.805Z,36.59
2023-05-09T04:06:25.840Z,36.63
2023-05-09T04:07:25.845Z,36.64
2023-05-09T04:08:25.875Z,36.61
2023-05-09T04:09:25.876Z,36.62
2023-05-09T04:10:25.905Z,36.61
2023-05-09T04:11:25.922Z,36.66
2023-05-09T04:12:25.934Z,36.63
2023-05-09T04:13:26.157Z,36.58
2023-05-09T04:14:25.949Z,36.61
2023-05-09T04:15:25.992Z,36.64
2023-05-09T04:16:26.038Z,36.64
2023-05-09T04:17:26.130Z,36.65
2023-05-09T04:18:26.053Z,36.63
2023-05-09T04:19:26.085Z,36.65
2023-05-09T04:20:26.117Z,36.65
2023-05-09T04:21:26.144Z,36.67
2023-05-09T04:22:26.145Z,36.64
2023-05-09T04:23:26.173Z,36.65
2023-05-09T04:24:26.166Z,36.65
2023-05-09T04:25:26.224Z,36.64
2023-05-09T04:26:26.228Z,36.64
2023-05-09T04:27:26.260Z,36.64
2023-05-09T04:28:26.271Z,36.60
2023-05-09T04:29:26.292Z,36.64
2023-05-09T04:30:26.338Z,36.59
2023-05-09T04:31:26.402Z,36.61
2023-05-09T04:32:26.411Z,36.64
2023-05-09T04:33:26.469Z,36.64
2023-05-09T04:34:26.400Z,36.65
2023-05-09T04:35:26.419Z,36.60
2023-05-09T04:36:26.438Z,36.63
2023-05-09T04:37:26.468Z,36.64
2023-05-09T04:38:26.483Z,36.63
2023-05-09T04:39:26.521Z,36.63
2023-05-09T04:40:26.994Z,36.66
2023-05-09T04:41:26.563Z,36.64
2023-05-09T04:42:26.564Z,36.62
2023-05-09T04:43:26.615Z,36.64
2023-05-09T04:44:26.629Z,36.65
2023-05-09T04:45:26.633Z,36.65
2023-05-09T04:46:26.709Z,36.61
2023-05-09T04:47:26.691Z,36.64
2023-05-09T04:48:26.698Z,36.70
2023-05-09T04:49:26.780Z,36.69
2023-05-09T04:50:26.744Z,36.69
2023-05-09T04:51:26.752Z,36.68
2023-05-09T04:52:26.783Z,36.69
2023-05-09T04:53:26.802Z,36.68
2023-05-09T04:54:26.823Z,36.68
2023-05-09T04:55:26.838Z,36.69
2023-05-09T04:56:26.889Z,36.64
2023-05-09T04:57:26.885Z,36.68
2023-05-09T04:58:26.916Z,36.67
2023-05-09T04:59:26.944Z,36.70
2023-05-09T05:00:26.962Z,36.71
2023-05-09T05:01:27.028Z,36.73
2023-05-09T05:02:26.992Z,36.70
2023-05-09T05:03:27.012Z,36.68
2023-05-09T05:04:27.041Z,36.69
2023-05-09T05:05:27.604Z,36.67
2023-05-09T05:06:27.057Z,36.68
2023-05-09T05:07:27.108Z,36.66
2023-05-09T05:08:27.100Z,36.70
2023-05-09T05:09:27.115Z,36.71
2023-05-09T05:10:27.159Z,36.68
2023-05-09T05:11:27.159Z,36.67
2023-05-09T05:12:27.172Z,36.68
2023-05-09T05:13:27.307Z,36.68
2023-05-09T05:14:27.220Z,36.68
2023-05-09T05:15:27.234Z,36.69
2023-05-09T05:16:27.344Z,36.69
2023-05-09T05:17:27.302Z,36.72
2023-05-09T05:18:27.299Z,36.70
2023-05-09T05:19:27.339Z,36.70
2023-05-09T05:20:27.348Z,36.73
2023-05-09T05:21:27.436Z,36.70
2023-05-09T05:22:27.362Z,36.71
2023-05-09T05:23:27.770Z,36.71
2023-05-09T05:24:27.397Z,36.70
2023-05-09T05:25:27.425Z,36.72
2023-05-09T05:26:27.444Z,36.74
2023-05-09T05:27:27.456Z,36.70
2023-05-09T05:28:27.758Z,37.25
2023-05-09T05:29:27.495Z,38.01
2023-05-09T05:30:27.543Z,38.36
2023-05-09T05:31:27.681Z,38.79
2023-05-09T05:32:27.611Z,39.25
2023-05-09T05:33:27.763Z,39.56
2023-05-09T05:34:27.628Z,39.98
2023-05-09T05:35:27.680Z,40.47
2023-05-09T05:36:27.716Z,40.61
2023-05-09T05:37:28.338Z,40.88
2023-05-09T05:38:27.812Z,41.13
2023-05-09T05:39:27.848Z,41.80
2023-05-09T05:40:27.839Z,42.04
2023-05-09T05:41:27.860Z,42.53
2023-05-09T05:42:27.898Z,42.88
2023-05-09T05:43:27.885Z,43.04
2023-05-09T05:44:27.894Z,42.98
2023-05-09T05:45:27.919Z,43.09
2023-05-09T05:46:27.917Z,43.01
2023-05-09T05:47:27.947Z,42.88
2023-05-09T05:48:27.963Z,43.09
2023-05-09T05:49:28.042Z,42.81
2023-05-09T05:50:28.063Z,42.97
2023-05-09T05:51:28.115Z,42.61
2023-05-09T05:52:28.160Z,42.44
2023-05-09T05:53:29.814Z,42.37
2023-05-09T05:54:28.411Z,42.47
2023-05-09T05:55:28.461Z,42.82
2023-05-09T05:56:28.532Z,43.11
2023-05-09T05:57:28.567Z,43.20
2023-05-09T05:58:28.593Z,43.11
2023-05-09T05:59:28.616Z,42.79
2023-05-09T06:00:28.619Z,42.69
2023-05-09T06:01:28.640Z,43.09
2023-05-09T06:02:28.737Z,43.05
2023-05-09T06:03:28.822Z,42.71
2023-05-09T06:04:28.648Z,42.26
2023-05-09T06:05:28.690Z,41.73
2023-05-09T06:06:28.729Z,42.14
2023-05-09T06:07:28.800Z,41.90
2023-05-09T06:08:28.857Z,41.94
2023-05-09T06:09:28.998Z,41.91
2023-05-09T06:10:29.016Z,41.71
2023-05-09T06:11:29.035Z,41.49
2023-05-09T06:12:29.104Z,41.48
2023-05-09T06:13:29.294Z,41.42
2023-05-09T06:14:29.260Z,41.52
2023-05-09T06:15:29.235Z,41.47
2023-05-09T06:16:29.337Z,41.32
2023-05-09T06:17:29.348Z,41.58
2023-05-09T06:18:29.356Z,41.79
2023-05-09T06:19:29.410Z,41.65
2023-05-09T06:20:29.421Z,41.62
2023-05-09T06:21:29.468Z,41.58
2023-05-09T06:22:29.490Z,41.17
2023-05-09T06:23:29.509Z,40.88
2023-05-09T06:24:35.602Z,41.18
2023-05-09T06:25:30.633Z,40.54
2023-05-09T06:26:29.548Z,40.47
2023-05-09T06:27:29.547Z,40.76
2023-05-09T06:28:29.543Z,40.39
2023-05-09T06:29:29.546Z,40.37
2023-05-09T06:30:29.539Z,40.19
2023-05-09T06:31:29.541Z,40.27
2023-05-09T06:32:29.519Z,40.74
2023-05-09T06:33:29.506Z,40.69
2023-05-09T06:34:29.779Z,40.96
2023-05-09T06:35:29.467Z,41.62
2023-05-09T06:36:29.500Z,42.21
2023-05-09T06:37:29.459Z,42.34
2023-05-09T06:38:29.525Z,42.40
2023-05-09T06:39:29.573Z,42.38
2023-05-09T06:40:29.605Z,42.48
2023-05-09T06:41:29.723Z,42.42
2023-05-09T06:42:29.656Z,42.21
2023-05-09T06:43:29.671Z,42.18
2023-05-09T06:44:29.670Z,42.14
2023-05-09T06:45:29.653Z,41.99
2023-05-09T06:46:29.733Z,41.78
2023-05-09T06:47:29.676Z,41.80
2023-05-09T06:48:29.779Z,41.38
2023-05-09T06:49:29.724Z,41.38
2023-05-09T06:50:31.437Z,41.14
2023-05-09T06:51:29.785Z,41.19
2023-05-09T06:52:29.757Z,41.08
2023-05-09T06:53:29.789Z,40.90
2023-05-09T06:54:29.775Z,40.91
2023-05-09T06:55:29.744Z,41.22
2023-05-09T06:56:29.721Z,41.29
2023-05-09T06:57:29.856Z,41.48
2023-05-09T06:58:29.902Z,41.47
2023-05-09T06:59:29.797Z,41.23
2023-05-09T07:00:29.691Z,41.11
2023-05-09T07:01:29.851Z,41.23
2023-05-09T07:02:29.696Z,41.25
2023-05-09T07:03:29.694Z,41.13
2023-05-09T07:04:29.669Z,41.44
2023-05-09T07:05:29.813Z,41.44
2023-05-09T07:06:29.662Z,41.06
2023-05-09T07:07:29.639Z,41.06
2023-05-09T07:08:29.636Z,41.20
2023-05-09T07:09:29.632Z,41.10
2023-05-09T07:10:29.657Z,41.10
2023-05-09T07:11:29.667Z,41.14
2023-05-09T07:12:29.632Z,41.18
2023-05-09T07:13:29.698Z,41.32
2023-05-09T07:14:29.842Z,41.23
2023-05-09T07:15:41.387Z,41.21
2023-05-09T07:16:30.677Z,41.08
2023-05-09T07:17:29.612Z,41.06
2023-05-09T07:18:29.598Z,41.17
2023-05-09T07:19:29.797Z,40.98
2023-05-09T07:20:29.574Z,40.82
2023-05-09T07:21:29.568Z,40.80
2023-05-09T07:22:31.760Z,40.68
2023-05-09T07:23:29.535Z,40.46
2023-05-09T07:24:29.811Z,40.63
2023-05-09T07:25:29.555Z,40.95
2023-05-09T07:26:29.554Z,40.35
2023-05-09T07:27:29.530Z,40.33
2023-05-09T07:28:29.507Z,40.00
2023-05-09T07:29:29.876Z,40.36
2023-05-09T07:30:29.512Z,40.50
2023-05-09T07:31:29.530Z,40.86
2023-05-09T07:32:29.527Z,40.98
2023-05-09T07:33:29.817Z,41.04
2023-05-09T07:34:29.845Z,41.02
2023-05-09T07:35:29.487Z,41.09
2023-05-09T07:36:29.458Z,41.08
2023-05-09T07:37:29.461Z,41.09
2023-05-09T07:38:29.805Z,41.01
2023-05-09T07:39:29.823Z,41.23
2023-05-09T07:40:29.429Z,41.06
2023-05-09T07:41:29.428Z,41.04
2023-05-09T07:42:29.420Z,41.07
2023-05-09T07:43:29.405Z,40.93
2023-05-09T07:44:29.403Z,40.75
2023-05-09T07:45:29.479Z,40.52
2023-05-09T07:46:29.419Z,40.63
2023-05-09T07:47:29.390Z,40.57
2023-05-09T07:48:29.370Z,40.41
2023-05-09T07:49:29.374Z,40.33
2023-05-09T07:50:29.344Z,40.25
2023-05-09T07:51:29.345Z,40.18
2023-05-09T07:52:29.329Z,40.19
2023-05-09T07:53:29.324Z,40.21
2023-05-09T07:54:29.804Z,40.22
2023-05-09T07:55:29.302Z,40.23
2023-05-09T07:56:29.299Z,40.28
2023-05-09T07:57:29.303Z,40.23
2023-05-09T07:58:29.301Z,40.34
2023-05-09T07:59:29.330Z,40.29
2023-05-09T08:00:29.271Z,40.30
2023-05-09T08:01:29.348Z,40.27
2023-05-09T08:02:29.444Z,40.23
2023-05-09T08:03:29.364Z,40.18
2023-05-09T08:04:29.327Z,40.15
2023-05-09T08:05:29.222Z,40.17
2023-05-09T08:06:29.236Z,40.14
2023-05-09T08:07:29.223Z,40.15
2023-05-09T08:08:29.214Z,40.07
2023-05-09T08:09:29.224Z,40.09
2023-05-09T08:10:29.194Z,40.10
2023-05-09T08:11:29.199Z,40.08
2023-05-09T08:12:29.187Z,40.10
2023-05-09T08:13:29.227Z,40.13
2023-05-09T08:14:29.162Z,40.05
2023-05-09T08:15:29.163Z,40.05
2023-05-09T08:16:29.297Z,39.95
2023-05-09T08:17:29.268Z,39.93
2023-05-09T08:18:29.313Z,39.94
2023-05-09T08:19:29.145Z,39.88
2023-05-09T08:20:29.128Z,39.90
2023-05-09T08:21:29.142Z,39.30
2023-05-09T08:22:29.201Z,39.14
2023-05-09T08:23:29.336Z,38.87
2023-05-09T08:24:29.330Z,38.86
2023-05-09T08:25:29.371Z,38.97
2023-05-09T08:26:29.424Z,39.06
2023-05-09T08:27:29.432Z,39.04
2023-05-09T08:28:29.454Z,39.01
2023-05-09T08:29:29.479Z,39.08
2023-05-09T08:30:29.476Z,39.01
2023-05-09T08:31:29.545Z,38.96
2023-05-09T08:32:29.583Z,38.91
2023-05-09T08:33:29.791Z,38.89
2023-05-09T08:34:29.647Z,38.87
2023-05-09T08:35:29.621Z,38.55
2023-05-09T08:36:29.679Z,37.93
2023-05-09T08:37:29.739Z,38.41
2023-05-09T08:38:29.778Z,39.00
2023-05-09T08:39:29.828Z,39.12
2023-05-09T08:40:29.803Z,38.98
2023-05-09T08:41:29.819Z,38.85
2023-05-09T08:42:29.816Z,38.83
2023-05-09T08:43:29.836Z,38.86
2023-05-09T08:44:30.319Z,38.67
2023-05-09T08:45:29.846Z,38.65
2023-05-09T08:46:29.867Z,38.57
2023-05-09T08:47:29.863Z,38.60
2023-05-09T08:48:29.826Z,38.52
2023-05-09T08:49:30.433Z,38.96
2023-05-09T08:50:29.854Z,38.52
2023-05-09T08:51:29.870Z,38.53
2023-05-09T08:52:29.904Z,38.92
2023-05-09T08:53:29.947Z,39.10
2023-05-09T08:54:30.357Z,39.18
2023-05-09T08:55:29.986Z,39.11
2023-05-09T08:56:30.055Z,39.03
2023-05-09T08:57:30.054Z,38.81
2023-05-09T08:58:30.095Z,38.87
2023-05-09T08:59:30.115Z,38.77
2023-05-09T09:00:30.140Z,38.77
2023-05-09T09:01:30.214Z,38.89
2023-05-09T09:02:30.264Z,38.90
2023-05-09T09:03:30.302Z,38.78
2023-05-09T09:04:30.903Z,38.97
2023-05-09T09:06:30.397Z,39.04
2023-05-09T09:07:31.284Z,39.08
2023-05-09T09:08:30.392Z,39.24
2023-05-09T09:09:30.361Z,39.80
2023-05-09T09:10:30.366Z,39.81
2023-05-09T09:11:30.349Z,39.83
2023-05-09T09:12:30.360Z,39.91
2023-05-09T09:13:30.492Z,39.83
2023-05-09T09:14:30.331Z,39.65
2023-05-09T09:15:30.326Z,39.54
2023-05-09T09:16:30.383Z,39.52
2023-05-09T09:17:30.475Z,39.36
2023-05-09T09:18:30.331Z,39.06
2023-05-09T09:19:30.311Z,39.07
2023-05-09T09:20:30.312Z,39.19
2023-05-09T09:21:30.384Z,39.05
2023-05-09T09:22:30.309Z,38.99
2023-05-09T09:23:30.285Z,38.97
2023-05-09T09:24:30.342Z,38.92
2023-05-09T09:25:30.272Z,39.24
2023-05-09T09:26:30.276Z,39.13
2023-05-09T09:27:30.285Z,39.11
2023-05-09T09:28:30.344Z,39.17
2023-05-09T09:29:30.356Z,38.98
2023-05-09T09:30:30.382Z,39.16
2023-05-09T09:31:30.467Z,39.14
2023-05-09T09:32:30.449Z,39.09
2023-05-09T09:33:30.443Z,39.05
2023-05-09T09:34:30.860Z,38.97
2023-05-09T09:35:30.477Z,39.27
2023-05-09T09:36:30.481Z,38.94
2023-05-09T09:37:30.566Z,38.91
2023-05-09T09:38:30.485Z,38.92
2023-05-09T09:39:30.864Z,38.94
2023-05-09T09:40:30.492Z,38.88
2023-05-09T09:41:30.474Z,38.87
2023-05-09T09:42:30.476Z,38.81
2023-05-09T09:43:30.509Z,38.88
2023-05-09T09:44:30.865Z,38.85
2023-05-09T09:45:30.586Z,38.87
2023-05-09T09:46:30.711Z,38.90
2023-05-09T09:47:30.697Z,38.91
2023-05-09T09:48:30.847Z,38.87
2023-05-09T09:49:30.857Z,38.87
2023-05-09T09:50:30.846Z,38.82
2023-05-09T09:51:30.884Z,38.81
2023-05-09T09:52:30.960Z,38.85
2023-05-09T09:53:31.125Z,38.87
2023-05-09T09:54:31.363Z,38.28
2023-05-09T09:55:31.111Z,38.05
2023-05-09T09:56:31.157Z,37.95
2023-05-09T09:57:31.335Z,37.99
2023-05-09T09:58:31.236Z,37.96
2023-05-09T09:59:31.311Z,37.80
2023-05-09T10:00:31.353Z,37.91
2023-05-09T10:01:31.469Z,37.97
2023-05-09T10:02:31.460Z,38.06
2023-05-09T10:03:31.474Z,38.12
2023-05-09T10:04:31.863Z,38.10
2023-05-09T10:05:31.573Z,38.14
2023-05-09T10:06:31.582Z,37.97
2023-05-09T10:07:31.653Z,37.24
2023-05-09T10:08:31.668Z,37.15
2023-05-09T10:09:31.791Z,37.04
2023-05-09T10:10:31.753Z,37.25
2023-05-09T10:11:31.775Z,37.46
2023-05-09T10:12:31.819Z,37.43
2023-05-09T10:13:31.903Z,37.47
2023-05-09T10:14:34.277Z,36.73
2023-05-09T10:15:41.469Z,37.09
2023-05-09T10:16:43.766Z,37.24
2023-05-09T10:17:33.008Z,37.19
2023-05-09T10:18:32.104Z,36.98
2023-05-09T10:19:32.374Z,37.04
2023-05-09T10:20:31.898Z,36.98
2023-05-09T10:21:33.874Z,36.81
2023-05-09T10:22:31.857Z,35.97
2023-05-09T10:23:31.862Z,35.95
2023-05-09T10:24:31.898Z,35.69
2023-05-09T10:25:31.931Z,35.34
2023-05-09T10:26:31.830Z,35.45
2023-05-09T10:27:31.830Z,35.98
2023-05-09T10:28:31.859Z,35.83
2023-05-09T10:29:31.946Z,35.63
2023-05-09T10:30:34.122Z,35.05
2023-05-09T10:31:32.069Z,34.77
2023-05-09T10:32:32.085Z,34.76
2023-05-09T10:33:32.133Z,34.77
2023-05-09T10:34:32.365Z,34.82
2023-05-09T10:35:32.269Z,34.58
2023-05-09T10:36:32.318Z,34.83
2023-05-09T10:37:33.566Z,34.91
2023-05-09T10:38:32.356Z,34.48
2023-05-09T10:39:32.416Z,34.48
2023-05-09T10:40:32.474Z,34.41
2023-05-09T10:41:32.523Z,34.74
2023-05-09T10:42:32.444Z,34.72
2023-05-09T10:43:32.609Z,34.71
2023-05-09T10:44:32.870Z,35.40
2023-05-09T10:45:32.454Z,34.88
2023-05-09T10:46:32.474Z,34.84
2023-05-09T10:47:32.585Z,34.92
2023-05-09T10:48:32.453Z,34.19
2023-05-09T10:49:34.347Z,34.12
2023-05-09T10:50:32.467Z,34.45
2023-05-09T10:51:32.468Z,34.32
2023-05-09T10:52:32.487Z,33.63
2023-05-09T10:53:32.456Z,34.91
2023-05-09T10:54:32.899Z,34.77
2023-05-09T10:55:32.431Z,35.19
2023-05-09T10:56:32.514Z,35.49
2023-05-09T10:57:32.542Z,35.64
2023-05-09T10:58:32.423Z,35.58
2023-05-09T10:59:32.904Z,35.52
2023-05-09T11:00:32.403Z,35.57
2023-05-09T11:01:32.418Z,35.58
2023-05-09T11:02:32.519Z,35.40
2023-05-09T11:03:32.438Z,35.38
2023-05-09T11:04:32.375Z,35.31
2023-05-09T11:05:32.383Z,35.20
2023-05-09T11:06:32.358Z,35.16
2023-05-09T11:07:32.353Z,35.00
2023-05-09T11:08:32.356Z,34.92
2023-05-09T11:09:32.355Z,34.84
2023-05-09T11:10:32.325Z,34.75
2023-05-09T11:11:32.339Z,34.56
2023-05-09T11:12:32.320Z,34.62
2023-05-09T11:13:32.437Z,34.61
2023-05-09T11:14:32.440Z,34.53
2023-05-09T11:15:32.379Z,34.54
2023-05-09T11:16:32.310Z,34.97
2023-05-09T11:17:32.307Z,35.11
2023-05-09T11:18:32.287Z,35.18
2023-05-09T11:19:32.399Z,35.25
2023-05-09T11:20:32.258Z,35.32
2023-05-09T11:21:32.266Z,35.22
2023-05-09T11:22:32.413Z,35.23
2023-05-09T11:23:32.230Z,35.24
2023-05-09T11:24:32.242Z,35.25
2023-05-09T11:25:32.210Z,35.21
2023-05-09T11:26:32.229Z,35.17
2023-05-09T11:27:32.215Z,35.15
2023-05-09T11:28:32.243Z,35.15
2023-05-09T11:29:32.283Z,35.13
2023-05-09T11:30:32.199Z,35.08
2023-05-09T11:31:32.232Z,35.02
2023-05-09T11:32:32.255Z,34.97
2023-05-09T11:33:32.163Z,34.99
2023-05-09T11:34:32.177Z,34.94
2023-05-09T11:35:32.176Z,34.91
2023-05-09T11:36:32.245Z,34.90
2023-05-09T11:37:32.283Z,34.90
2023-05-09T11:38:32.323Z,34.93
2023-05-09T11:39:32.417Z,34.89
2023-05-09T11:40:32.416Z,34.85
2023-05-09T11:41:32.464Z,34.84
2023-05-09T11:42:32.528Z,34.85
2023-05-09T11:43:32.549Z,34.84
2023-05-09T11:44:32.593Z,34.81
2023-05-09T11:45:32.847Z,34.79
2023-05-09T11:46:32.709Z,34.74
2023-05-09T11:47:32.726Z,34.71
2023-05-09T11:48:32.749Z,34.70
2023-05-09T11:49:32.802Z,34.66
2023-05-09T11:50:32.839Z,34.60
2023-05-09T11:51:32.895Z,34.66
2023-05-09T11:52:32.941Z,34.57
2023-05-09T11:53:32.950Z,34.56
2023-05-09T11:54:32.992Z,34.54
2023-05-09T11:55:33.028Z,34.52
2023-05-09T11:56:33.067Z,34.46
2023-05-09T11:57:33.116Z,34.46
2023-05-09T11:58:33.143Z,34.42
2023-05-09T11:59:33.188Z,34.45
2023-05-09T12:00:33.247Z,34.44
2023-05-09T12:01:33.273Z,34.45
2023-05-09T12:02:33.513Z,34.37
2023-05-09T12:03:33.412Z,34.36
2023-05-09T12:04:33.435Z,34.35
2023-05-09T12:05:33.435Z,34.16
2023-05-09T12:06:33.465Z,33.73
2023-05-09T12:07:33.505Z,34.10
2023-05-09T12:08:33.536Z,34.17
2023-05-09T12:09:33.570Z,34.22
2023-05-09T12:10:33.606Z,34.29
2023-05-09T12:11:33.645Z,34.33
2023-05-09T12:12:33.669Z,34.42
2023-05-09T12:13:33.715Z,34.44
2023-05-09T12:14:33.717Z,34.52
2023-05-09T12:15:33.750Z,34.56
2023-05-09T12:16:33.783Z,34.51
2023-05-09T12:17:33.878Z,34.56
2023-05-09T12:18:33.801Z,34.57
2023-05-09T12:19:33.815Z,34.59
2023-05-09T12:20:33.830Z,34.50
2023-05-09T12:21:33.837Z,34.58
2023-05-09T12:22:33.849Z,34.62
2023-05-09T12:23:33.876Z,34.66
2023-05-09T12:24:33.903Z,34.71
2023-05-09T12:25:33.912Z,34.67
2023-05-09T12:26:33.952Z,34.59
2023-05-09T12:27:33.941Z,34.64
2023-05-09T12:28:33.947Z,34.64
2023-05-09T12:29:33.934Z,34.62
2023-05-09T12:30:33.965Z,34.54
2023-05-09T12:31:33.949Z,34.55
2023-05-09T12:32:34.394Z,34.52
2023-05-09T12:33:34.034Z,34.52
2023-05-09T12:34:33.966Z,34.54
2023-05-09T12:35:33.982Z,34.55
2023-05-09T12:36:33.970Z,34.54
2023-05-09T12:37:33.968Z,34.38
2023-05-09T12:38:33.971Z,34.44
2023-05-09T12:39:33.977Z,34.35
2023-05-09T12:40:33.988Z,34.37
2023-05-09T12:41:39.517Z,34.36
2023-05-09T12:42:34.989Z,34.40
2023-05-09T12:43:33.984Z,34.50
2023-05-09T12:44:33.960Z,34.49
2023-05-09T12:45:33.985Z,34.58
2023-05-09T12:46:35.632Z,34.56
2023-05-09T12:47:33.971Z,34.57
2023-05-09T12:48:33.947Z,34.55
2023-05-09T12:49:33.996Z,34.55
2023-05-09T12:50:33.934Z,34.62
2023-05-09T12:51:33.918Z,34.60
2023-05-09T12:52:33.890Z,34.58
2023-05-09T12:53:33.889Z,34.61